Time;durP1;ratioP1;P1;durP2;ratioP2;P2;SDS_P1;SDS_P2;PMS_P1;PMS_P2;Temp;Humidity;BMP_temperature;BMP_pressure;BME280_temperature;BME280_humidity;BME280_pressure;Samples;Min_cycle;Max_cycle;Signal;HPM_P1;HPM_P2
2022/01/17 00:01:41;;;;;;;2.70;2.60;;;3.70;99.90;;;;;;5048458;28;20254;-62
2022/01/17 00:04:10;;;;;;;2.90;2.80;;;3.70;99.90;;;;;;5052143;28;20303;-62
2022/01/17 00:06:37;;;;;;;2.73;2.63;;;3.60;99.90;;;;;;5052630;28;20196;-63
2022/01/17 00:09:04;;;;;;;2.97;2.87;;;3.60;99.90;;;;;;5058780;28;20208;-62
2022/01/17 00:11:31;;;;;;;2.80;2.70;;;3.60;99.90;;;;;;5059394;28;20652;-62
2022/01/17 00:13:59;;;;;;;2.87;2.70;;;3.50;99.90;;;;;;5061531;28;20204;-63
2022/01/17 00:16:38;;;;;;;3.00;2.90;;;3.60;99.90;;;;;;5062124;28;20228;-63
2022/01/17 00:19:28;;;;;;;2.90;2.80;;;3.60;99.90;;;;;;5063303;28;20654;-62
2022/01/17 00:21:54;;;;;;;2.93;2.73;;;3.60;99.90;;;;;;5059560;28;20208;-63
2022/01/17 00:24:21;;;;;;;3.00;2.80;;;3.60;99.90;;;;;;5050566;28;20310;-63
2022/01/17 00:26:48;;;;;;;3.07;2.87;;;3.60;99.90;;;;;;5051144;28;20200;-62
2022/01/17 00:29:20;;;;;;;2.90;2.80;;;3.60;99.90;;;;;;5053708;28;20678;-62
2022/01/17 00:31:47;;;;;;;3.30;3.10;;;3.60;99.90;;;;;;5052936;28;20210;-63
2022/01/17 00:34:14;;;;;;;2.73;2.63;;;3.60;99.90;;;;;;5055651;28;20220;-63
2022/01/17 00:36:41;;;;;;;2.80;2.70;;;3.60;99.90;;;;;;5054396;28;20242;-62
2022/01/17 00:39:08;;;;;;;2.90;2.80;;;3.60;99.90;;;;;;5055964;28;20326;-63
2022/01/17 00:41:35;;;;;;;2.97;2.80;;;3.60;99.90;;;;;;5052757;28;20200;-63
2022/01/17 00:44:03;;;;;;;2.70;2.50;;;3.60;99.90;;;;;;5053201;28;20227;-62
2022/01/17 00:46:31;;;;;;;2.53;2.43;;;3.60;99.90;;;;;;5055533;28;20196;-62
2022/01/17 00:48:58;;;;;;;2.80;2.70;;;3.70;99.90;;;;;;5054464;28;20196;-62
2022/01/17 00:51:25;;;;;;;3.20;3.00;;;3.70;99.90;;;;;;5055952;28;20221;-63
2022/01/17 00:53:52;;;;;;;3.00;2.90;;;3.60;99.90;;;;;;5054491;28;20286;-63
2022/01/17 00:56:21;;;;;;;3.10;2.90;;;3.60;99.90;;;;;;5055590;28;20229;-62
2022/01/17 00:58:48;;;;;;;2.80;2.70;;;3.60;99.90;;;;;;5053658;28;20212;-61
2022/01/17 01:01:15;;;;;;;3.00;2.80;;;3.60;99.90;;;;;;5056257;28;20639;-62
2022/01/17 01:03:43;;;;;;;2.60;2.50;;;3.50;99.90;;;;;;5054122;28;20206;-62
2022/01/17 01:06:10;;;;;;;2.73;2.60;;;3.50;99.90;;;;;;5055314;28;20233;-62
2022/01/17 01:08:37;;;;;;;3.00;2.80;;;3.60;99.90;;;;;;5054319;28;20639;-63
2022/01/17 01:11:04;;;;;;;2.60;2.50;;;3.70;99.90;;;;;;5055581;28;20216;-62
2022/01/17 01:13:31;;;;;;;2.57;2.47;;;3.70;99.90;;;;;;5054999;28;20271;-62
2022/01/17 01:16:21;;;;;;;2.47;2.37;;;3.80;99.90;;;;;;5056618;28;20259;-61
2022/01/17 01:21:58;;;;;;;2.60;2.50;;;3.90;99.90;;;;;;5028617;28;20203;-62
2022/01/17 01:29:57;;;;;;;4.00;3.80;;;4.00;99.90;;;;;;5053960;28;20200;-61
2022/01/17 01:32:30;;;;;;;4.10;3.80;;;3.80;99.90;;;;;;5053729;28;20298;-62
2022/01/17 01:35:00;;;;;;;4.30;4.00;;;3.40;99.90;;;;;;5052798;28;20599;-62
2022/01/17 01:37:27;;;;;;;4.47;4.17;;;3.30;99.90;;;;;;5056844;28;20285;-61
2022/01/17 01:39:55;;;;;;;4.30;4.10;;;3.30;99.90;;;;;;5051242;28;20287;-61
2022/01/17 01:42:23;;;;;;;4.50;4.20;;;3.20;99.90;;;;;;5059399;28;20226;-63
2022/01/17 01:44:50;;;;;;;4.60;4.30;;;3.10;99.90;;;;;;5062268;28;20212;-62
2022/01/17 01:47:20;;;;;;;4.47;4.17;;;3.10;99.90;;;;;;5067853;28;20279;-61
2022/01/17 01:49:47;;;;;;;4.70;4.40;;;3.20;99.90;;;;;;5065733;28;20219;-62
2022/01/17 01:52:15;;;;;;;4.60;4.30;;;3.10;99.90;;;;;;5065105;28;20264;-63
2022/01/17 01:54:42;;;;;;;3.90;3.70;;;3.00;99.90;;;;;;5053798;28;20228;-62
2022/01/17 01:57:09;;;;;;;4.80;4.50;;;3.10;99.90;;;;;;5054707;28;20585;-61
2022/01/17 01:59:37;;;;;;;4.13;3.93;;;3.10;99.90;;;;;;5052769;28;20750;-61
2022/01/17 02:02:04;;;;;;;4.60;4.30;;;3.10;99.90;;;;;;5054424;28;20211;-62
2022/01/17 02:04:31;;;;;;;4.20;4.00;;;3.20;99.90;;;;;;5049222;28;20302;-62
2022/01/17 02:06:58;;;;;;;3.93;3.73;;;3.20;99.90;;;;;;5053201;28;20204;-62
2022/01/17 02:09:27;;;;;;;4.10;3.90;;;3.40;99.90;;;;;;5054176;28;20207;-63
2022/01/17 02:11:54;;;;;;;4.20;4.00;;;3.30;99.90;;;;;;5052384;28;20212;-63
2022/01/17 02:14:21;;;;;;;3.83;3.63;;;3.30;99.90;;;;;;5054582;28;20691;-62
2022/01/17 02:16:50;;;;;;;3.77;3.57;;;3.40;99.90;;;;;;5053394;28;20282;-61
2022/01/17 02:19:20;;;;;;;4.07;3.87;;;3.50;99.90;;;;;;5052940;28;20241;-62
2022/01/17 02:21:50;;;;;;;3.90;3.70;;;3.60;99.90;;;;;;5052783;28;20211;-63
2022/01/17 02:24:20;;;;;;;4.33;4.13;;;3.50;99.90;;;;;;5053513;28;20227;-62
2022/01/17 02:26:48;;;;;;;4.33;4.10;;;3.50;99.90;;;;;;5053293;28;20199;-62
2022/01/17 02:29:15;;;;;;;4.40;4.20;;;3.60;99.90;;;;;;5054815;28;20210;-63
2022/01/17 02:31:44;;;;;;;4.33;4.13;;;3.70;99.90;;;;;;5052568;28;20275;-63
2022/01/17 02:34:11;;;;;;;4.07;3.87;;;3.60;99.90;;;;;;5053847;28;20296;-62
2022/01/17 02:36:38;;;;;;;4.40;4.20;;;3.60;99.90;;;;;;5053243;28;20230;-62
2022/01/17 02:39:06;;;;;;;4.40;4.20;;;3.50;99.90;;;;;;5053045;28;20555;-63
2022/01/17 02:41:34;;;;;;;4.73;4.43;;;3.40;99.90;;;;;;5052387;28;20290;-62
2022/01/17 02:44:02;;;;;;;4.30;4.10;;;3.50;99.90;;;;;;5052751;28;20220;-62
2022/01/17 02:46:30;;;;;;;4.00;3.80;;;3.40;99.90;;;;;;5047833;28;20294;-62
2022/01/17 02:48:59;;;;;;;4.60;4.30;;;3.40;99.90;;;;;;5049571;28;20196;-62
2022/01/17 02:51:26;;;;;;;4.27;4.07;;;3.40;99.90;;;;;;5051171;28;20206;-62
2022/01/17 02:53:53;;;;;;;4.40;4.13;;;3.40;99.90;;;;;;5054133;28;20307;-63
2022/01/17 02:56:21;;;;;;;4.40;4.20;;;3.40;99.90;;;;;;5055398;28;20325;-62
2022/01/17 02:58:48;;;;;;;4.20;4.00;;;3.30;99.90;;;;;;5049821;28;20611;-61
2022/01/17 03:01:18;;;;;;;4.60;4.30;;;3.30;99.90;;;;;;5054494;28;20231;-62
2022/01/17 03:03:45;;;;;;;4.67;4.37;;;3.40;99.90;;;;;;5054735;28;20291;-62
2022/01/17 03:06:13;;;;;;;4.80;4.50;;;3.40;99.90;;;;;;5055408;28;20195;-63
2022/01/17 03:08:42;;;;;;;4.50;4.30;;;3.40;99.90;;;;;;5054643;28;21014;-62
2022/01/17 03:11:11;;;;;;;4.37;4.17;;;3.40;99.90;;;;;;5053121;28;20295;-62
2022/01/17 03:13:40;;;;;;;4.20;4.00;;;3.50;99.90;;;;;;5054517;28;20296;-62
2022/01/17 03:16:11;;;;;;;3.87;3.67;;;3.50;99.90;;;;;;5053114;28;20219;-62
2022/01/17 03:18:40;;;;;;;3.57;3.37;;;3.50;99.90;;;;;;5053872;28;20295;-62
2022/01/17 03:21:08;;;;;;;3.87;3.67;;;3.50;99.90;;;;;;5061489;28;20235;-63
2022/01/17 03:23:36;;;;;;;4.43;4.23;;;3.50;99.90;;;;;;5073593;28;20691;-62
2022/01/17 03:26:03;;;;;;;4.40;4.20;;;3.50;99.90;;;;;;5073680;28;20225;-62
2022/01/17 03:28:31;;;;;;;4.40;4.17;;;3.50;99.90;;;;;;5073603;28;20203;-63
2022/01/17 03:31:00;;;;;;;4.57;4.27;;;3.40;99.90;;;;;;5073966;28;20203;-65
2022/01/17 03:33:28;;;;;;;4.10;3.90;;;3.40;99.90;;;;;;5072722;28;20234;-62
2022/01/17 03:35:56;;;;;;;3.73;3.53;;;3.40;99.90;;;;;;5074002;28;20620;-62
2022/01/17 03:38:26;;;;;;;3.83;3.63;;;3.50;99.90;;;;;;5073706;28;20701;-62
2022/01/17 03:40:53;;;;;;;3.97;3.77;;;3.50;99.90;;;;;;5073251;28;20234;-62
2022/01/17 03:43:20;;;;;;;3.60;3.40;;;3.50;99.90;;;;;;5073012;28;20290;-62
2022/01/17 03:45:49;;;;;;;3.50;3.30;;;3.60;99.90;;;;;;5072662;28;20250;-61
2022/01/17 03:48:18;;;;;;;3.33;3.17;;;3.60;99.90;;;;;;5073166;28;20218;-62
2022/01/17 03:50:45;;;;;;;3.50;3.30;;;3.70;99.90;;;;;;5073498;28;20249;-62
2022/01/17 03:53:12;;;;;;;2.97;2.83;;;3.80;99.90;;;;;;5072299;28;20286;-62
2022/01/17 03:55:39;;;;;;;3.00;2.80;;;3.90;99.90;;;;;;5055723;28;20756;-63
2022/01/17 03:58:07;;;;;;;2.70;2.60;;;3.90;99.90;;;;;;5063654;28;20211;-63
2022/01/17 04:00:36;;;;;;;2.43;2.33;;;4.00;99.90;;;;;;5075114;28;20658;-62
2022/01/17 04:03:04;;;;;;;2.90;2.70;;;4.00;99.90;;;;;;5071721;28;20226;-63
2022/01/17 04:05:32;;;;;;;2.47;2.37;;;4.00;99.90;;;;;;5072194;28;20227;-61
2022/01/17 04:07:59;;;;;;;2.60;2.50;;;4.10;99.90;;;;;;5072835;28;20670;-62
2022/01/17 04:10:26;;;;;;;3.20;3.00;;;4.20;99.90;;;;;;5073250;28;20676;-62
2022/01/17 04:13:00;;;;;;;3.20;3.00;;;4.30;99.90;;;;;;5073080;28;20218;-62
2022/01/17 04:15:27;;;;;;;2.87;2.77;;;4.30;99.90;;;;;;5073260;28;20314;-63
2022/01/17 04:17:53;;;;;;;2.73;2.63;;;4.30;99.90;;;;;;5072633;28;20298;-61
2022/01/17 04:20:26;;;;;;;2.90;2.70;;;4.40;99.90;;;;;;5071831;28;20334;-62
2022/01/17 04:22:56;;;;;;;3.40;3.20;;;4.30;99.90;;;;;;5073108;28;20238;-63
2022/01/17 04:25:24;;;;;;;3.47;3.27;;;4.30;99.90;;;;;;5073455;28;20732;-62
2022/01/17 04:27:52;;;;;;;3.00;2.80;;;4.40;99.90;;;;;;5072460;28;20326;-62
2022/01/17 04:30:20;;;;;;;2.80;2.70;;;4.40;99.90;;;;;;5072292;28;20208;-62
2022/01/17 04:32:48;;;;;;;2.70;2.60;;;4.40;99.90;;;;;;5074885;28;20207;-62
2022/01/17 04:35:20;;;;;;;2.90;2.80;;;4.40;99.90;;;;;;5074243;28;20328;-63
2022/01/17 04:37:49;;;;;;;2.83;2.63;;;4.40;99.90;;;;;;5072953;28;20195;-63
2022/01/17 04:40:18;;;;;;;2.90;2.80;;;4.30;99.90;;;;;;5071865;28;20317;-61
2022/01/17 04:42:47;;;;;;;2.77;2.67;;;4.30;99.90;;;;;;5072524;28;20302;-61
2022/01/17 04:45:16;;;;;;;2.60;2.50;;;4.30;99.90;;;;;;5072299;28;20732;-62
2022/01/17 04:47:46;;;;;;;2.90;2.80;;;4.20;99.90;;;;;;5072171;28;20582;-62
2022/01/17 04:50:15;;;;;;;2.70;2.60;;;4.20;99.90;;;;;;5072427;28;20238;-62
2022/01/17 04:52:42;;;;;;;2.90;2.80;;;4.20;99.90;;;;;;5072346;28;20234;-62
2022/01/17 04:55:14;;;;;;;2.80;2.70;;;4.10;99.90;;;;;;5071850;28;20219;-63
2022/01/17 04:57:43;;;;;;;3.00;2.87;;;4.10;99.90;;;;;;5072303;28;20314;-63
2022/01/17 05:00:13;;;;;;;3.13;2.93;;;4.00;99.90;;;;;;5071218;28;20211;-62
2022/01/17 05:02:42;;;;;;;3.20;3.00;;;3.90;99.90;;;;;;5071750;28;20200;-61
2022/01/17 05:05:10;;;;;;;3.03;2.90;;;3.90;99.90;;;;;;5071755;28;20259;-61
2022/01/17 05:07:37;;;;;;;2.90;2.80;;;3.80;99.90;;;;;;5072173;28;20348;-61
2022/01/17 05:10:07;;;;;;;3.20;3.00;;;3.80;99.90;;;;;;5071991;28;20613;-62
2022/01/17 05:12:34;;;;;;;3.20;3.00;;;3.80;99.90;;;;;;5071571;28;20389;-63
2022/01/17 05:15:04;;;;;;;3.20;3.00;;;3.80;99.90;;;;;;5071157;28;20227;-61
2022/01/17 05:17:55;;;;;;;3.10;3.00;;;3.80;99.90;;;;;;5071927;28;20676;-61
2022/01/17 05:20:22;;;;;;;2.70;2.60;;;3.80;99.90;;;;;;5070908;28;20215;-63
2022/01/17 05:22:50;;;;;;;2.80;2.60;;;3.90;99.90;;;;;;5071715;28;20212;-63
2022/01/17 05:25:17;;;;;;;2.60;2.50;;;3.90;99.90;;;;;;5070930;28;20254;-61
2022/01/17 05:27:44;;;;;;;2.50;2.40;;;4.00;99.90;;;;;;5071760;28;20262;-62
2022/01/17 05:30:14;;;;;;;2.20;2.10;;;4.10;99.90;;;;;;5071728;28;20210;-62
2022/01/17 05:32:42;;;;;;;2.40;2.30;;;4.10;99.90;;;;;;5071608;28;20682;-62
2022/01/17 05:35:10;;;;;;;2.70;2.60;;;4.20;99.90;;;;;;5071234;28;20239;-63
2022/01/17 05:37:38;;;;;;;2.57;2.47;;;4.20;99.90;;;;;;5072081;28;20220;-63
2022/01/17 05:40:06;;;;;;;2.80;2.70;;;4.30;99.90;;;;;;5071150;28;20293;-63
2022/01/17 05:42:33;;;;;;;3.03;2.83;;;4.20;99.90;;;;;;5071498;28;20214;-63
2022/01/17 05:45:00;;;;;;;3.00;2.90;;;4.10;99.90;;;;;;5071374;28;20781;-63
2022/01/17 05:47:28;;;;;;;2.90;2.80;;;4.00;99.90;;;;;;5071188;28;20904;-63
2022/01/17 05:49:56;;;;;;;3.13;2.93;;;3.90;99.90;;;;;;5071595;28;20234;-62
2022/01/17 05:52:23;;;;;;;2.90;2.80;;;3.90;99.90;;;;;;5071657;28;20207;-62
2022/01/17 05:54:50;;;;;;;2.90;2.70;;;4.00;99.90;;;;;;5071240;28;20309;-61
2022/01/17 05:57:17;;;;;;;2.87;2.77;;;4.00;99.90;;;;;;5071803;28;20739;-62
2022/01/17 05:59:44;;;;;;;2.60;2.50;;;4.10;99.90;;;;;;5070370;28;20712;-63
2022/01/17 06:02:12;;;;;;;2.90;2.80;;;4.20;99.90;;;;;;5046362;28;20211;-62
2022/01/17 06:04:40;;;;;;;2.70;2.60;;;4.30;99.90;;;;;;5056792;28;20220;-62
2022/01/17 06:07:07;;;;;;;2.67;2.57;;;4.30;99.90;;;;;;5049558;28;20231;-61
2022/01/17 06:09:34;;;;;;;2.43;2.33;;;4.40;99.90;;;;;;5060128;28;20239;-62
2022/01/17 06:12:02;;;;;;;2.47;2.37;;;4.30;99.90;;;;;;5073818;28;20215;-62
2022/01/17 06:14:30;;;;;;;2.20;2.10;;;4.30;99.90;;;;;;5076773;28;20230;-61
2022/01/17 06:16:57;;;;;;;2.80;2.70;;;4.40;99.90;;;;;;5076881;28;20211;-63
2022/01/17 06:19:23;;;;;;;2.50;2.40;;;4.30;99.90;;;;;;5063987;28;20234;-62
2022/01/17 06:21:52;;;;;;;2.70;2.60;;;4.30;99.90;;;;;;5078788;28;20230;-62
2022/01/17 06:24:19;;;;;;;2.40;2.30;;;4.40;99.90;;;;;;5077138;28;20385;-62
2022/01/17 06:26:46;;;;;;;2.53;2.43;;;4.40;99.90;;;;;;5073262;28;20203;-63
2022/01/17 06:29:14;;;;;;;2.50;2.40;;;4.40;99.90;;;;;;5074641;28;20239;-62
2022/01/17 06:31:43;;;;;;;2.60;2.50;;;4.30;99.90;;;;;;5074281;28;20677;-62
2022/01/17 06:34:11;;;;;;;2.80;2.70;;;4.30;99.90;;;;;;5074061;28;20312;-63
2022/01/17 06:36:41;;;;;;;2.60;2.50;;;4.30;99.90;;;;;;5071087;28;20315;-62
2022/01/17 06:39:10;;;;;;;2.60;2.50;;;4.30;99.90;;;;;;5070338;28;20341;-63
2022/01/17 06:41:37;;;;;;;2.57;2.47;;;4.30;99.90;;;;;;5070378;28;20207;-63
2022/01/17 06:44:04;;;;;;;2.70;2.60;;;4.30;99.90;;;;;;5072493;28;20233;-62
2022/01/17 06:46:31;;;;;;;2.63;2.53;;;4.20;99.90;;;;;;5074255;28;20230;-62
2022/01/17 06:48:58;;;;;;;2.60;2.50;;;4.20;99.90;;;;;;5054588;28;20284;-62
2022/01/17 06:51:25;;;;;;;2.40;2.30;;;4.20;99.90;;;;;;5050944;28;20204;-63
2022/01/17 06:53:52;;;;;;;2.50;2.40;;;4.30;99.90;;;;;;5053377;28;20199;-63
2022/01/17 06:56:20;;;;;;;2.50;2.40;;;4.30;99.90;;;;;;5054320;28;20227;-61
2022/01/17 06:58:47;;;;;;;2.60;2.50;;;4.30;99.90;;;;;;5052609;28;20279;-62
2022/01/17 07:01:15;;;;;;;2.63;2.53;;;4.20;99.90;;;;;;5061179;28;20253;-63
2022/01/17 07:03:42;;;;;;;2.60;2.50;;;4.20;99.90;;;;;;5070977;28;20214;-62
2022/01/17 07:06:09;;;;;;;2.47;2.37;;;4.10;99.90;;;;;;5071050;28;20199;-62
2022/01/17 07:08:36;;;;;;;2.17;2.07;;;4.00;99.90;;;;;;5072050;28;20290;-62
2022/01/17 07:11:03;;;;;;;2.40;2.30;;;4.10;99.90;;;;;;5071767;28;20314;-63
2022/01/17 07:13:31;;;;;;;2.33;2.23;;;4.10;99.90;;;;;;5072987;28;20289;-63
2022/01/17 07:15:58;;;;;;;2.50;2.40;;;4.10;99.90;;;;;;5072283;28;20670;-63
2022/01/17 07:18:25;;;;;;;2.90;2.70;;;4.10;99.90;;;;;;5072574;28;20310;-62
2022/01/17 07:20:52;;;;;;;3.13;2.93;;;4.10;99.90;;;;;;5070607;28;20211;-62
2022/01/17 07:23:19;;;;;;;3.63;3.43;;;4.00;99.90;;;;;;5070937;28;20199;-62
2022/01/17 07:25:46;;;;;;;3.67;3.47;;;4.00;99.90;;;;;;5071818;28;20230;-62
2022/01/17 07:28:14;;;;;;;3.80;3.60;;;3.90;99.90;;;;;;5057739;28;20258;-63
2022/01/17 07:30:42;;;;;;;4.00;3.80;;;3.90;99.90;;;;;;5064470;28;20191;-63
2022/01/17 07:33:10;;;;;;;4.67;4.40;;;3.80;99.90;;;;;;5070767;28;20374;-63
2022/01/17 07:35:37;;;;;;;4.70;4.40;;;3.70;99.90;;;;;;5070791;28;20314;-62
2022/01/17 07:38:04;;;;;;;4.43;4.20;;;3.60;99.90;;;;;;5070839;28;20697;-62
2022/01/17 07:40:31;;;;;;;4.30;4.10;;;3.60;99.90;;;;;;5073828;28;20207;-62
2022/01/17 07:42:58;;;;;;;5.00;4.70;;;3.50;99.90;;;;;;5073934;28;20214;-62
2022/01/17 07:45:26;;;;;;;4.80;4.50;;;3.30;99.90;;;;;;5073949;28;20219;-63
2022/01/17 07:48:11;;;;;;;4.50;4.20;;;3.30;99.90;;;;;;5074037;28;20222;-63
2022/01/17 07:50:39;;;;;;;4.40;4.10;;;3.30;99.90;;;;;;5074348;28;20220;-64
2022/01/17 07:53:06;;;;;;;4.20;4.00;;;3.30;99.90;;;;;;5073558;28;20203;-62
2022/01/17 07:55:33;;;;;;;3.83;3.63;;;3.30;99.90;;;;;;5074182;28;20243;-62
2022/01/17 07:58:00;;;;;;;3.80;3.60;;;3.40;99.90;;;;;;5062682;28;20235;-62
2022/01/17 08:00:27;;;;;;;4.20;3.93;;;3.60;99.90;;;;;;5065498;28;20199;-64
2022/01/17 08:02:58;;;;;;;3.83;3.63;;;3.70;99.90;;;;;;5073715;28;20235;-65
2022/01/17 08:05:25;;;;;;;4.37;4.17;;;3.80;99.90;;;;;;5081469;28;20227;-62
2022/01/17 08:07:52;;;;;;;3.60;3.40;;;3.80;99.90;;;;;;5085130;28;20294;-62
2022/01/17 08:10:19;;;;;;;4.00;3.80;;;3.90;99.90;;;;;;5083626;28;20215;-62
2022/01/17 08:12:47;;;;;;;4.60;4.30;;;3.90;99.90;;;;;;5083967;28;20207;-63
2022/01/17 08:15:15;;;;;;;3.93;3.73;;;3.90;99.90;;;;;;5081258;28;20313;-63
2022/01/17 08:17:43;;;;;;;4.10;3.90;;;3.90;99.90;;;;;;5073627;28;20259;-62
2022/01/17 08:20:11;;;;;;;3.97;3.77;;;4.00;99.90;;;;;;5072889;28;20294;-62
2022/01/17 08:22:39;;;;;;;4.13;3.93;;;4.00;99.90;;;;;;5073027;28;20242;-62
2022/01/17 08:25:07;;;;;;;4.10;3.83;;;4.00;99.90;;;;;;5073322;28;20579;-61
2022/01/17 08:27:34;;;;;;;3.60;3.40;;;4.00;99.90;;;;;;5073268;28;20289;-63
2022/01/17 08:30:01;;;;;;;3.87;3.67;;;4.10;99.90;;;;;;5064129;28;20291;-61
2022/01/17 08:32:29;;;;;;;3.90;3.70;;;4.10;99.90;;;;;;5050682;28;20739;-62
2022/01/17 08:34:57;;;;;;;3.70;3.50;;;4.20;99.90;;;;;;5049015;28;20289;-62
2022/01/17 08:37:26;;;;;;;4.00;3.80;;;4.20;99.90;;;;;;5052661;28;20269;-63
2022/01/17 08:39:53;;;;;;;3.43;3.23;;;4.10;99.90;;;;;;5048268;28;20196;-63
2022/01/17 08:42:20;;;;;;;3.63;3.43;;;4.10;99.90;;;;;;5046283;28;20294;-62
2022/01/17 08:44:49;;;;;;;3.60;3.40;;;4.20;99.90;;;;;;5055808;28;20308;-63
2022/01/17 08:47:17;;;;;;;3.93;3.73;;;4.30;99.90;;;;;;5071611;28;20203;-62
2022/01/17 08:49:44;;;;;;;3.80;3.60;;;4.30;99.90;;;;;;5072168;28;20211;-63
2022/01/17 08:52:13;;;;;;;3.70;3.50;;;4.40;99.90;;;;;;5070788;28;20217;-61
2022/01/17 08:54:41;;;;;;;4.07;3.87;;;4.40;99.90;;;;;;5052142;28;20224;-63
2022/01/17 08:57:08;;;;;;;3.90;3.70;;;4.40;99.90;;;;;;5059006;28;20311;-62
2022/01/17 08:59:35;;;;;;;3.70;3.50;;;4.40;99.90;;;;;;5072341;28;20776;-62
2022/01/17 09:02:01;;;;;;;4.27;4.00;;;4.40;99.90;;;;;;5072406;28;20292;-61
2022/01/17 09:04:28;;;;;;;3.57;3.37;;;4.30;99.90;;;;;;5072781;28;20233;-63
2022/01/17 09:06:55;;;;;;;3.90;3.70;;;4.30;99.90;;;;;;5072849;28;20572;-62
2022/01/17 09:09:22;;;;;;;4.00;3.80;;;4.40;99.90;;;;;;5072410;28;20215;-62
2022/01/17 09:11:51;;;;;;;4.20;4.00;;;4.40;99.90;;;;;;5072382;28;20290;-63
2022/01/17 09:14:18;;;;;;;4.20;4.00;;;4.40;99.90;;;;;;5072193;28;20265;-62
2022/01/17 09:16:45;;;;;;;3.90;3.70;;;4.50;99.90;;;;;;5072270;28;20849;-63
2022/01/17 09:19:12;;;;;;;3.90;3.70;;;4.50;99.90;;;;;;5072352;28;20196;-63
2022/01/17 09:21:41;;;;;;;4.60;4.30;;;4.60;99.90;;;;;;5071458;28;20826;-63
2022/01/17 09:24:08;;;;;;;4.30;4.00;;;4.60;99.90;;;;;;5072163;28;20687;-63
2022/01/17 09:26:35;;;;;;;4.30;4.00;;;4.60;99.90;;;;;;5072938;28;20243;-62
2022/01/17 09:29:04;;;;;;;4.27;4.00;;;4.70;99.90;;;;;;5070565;28;20761;-63
2022/01/17 09:31:31;;;;;;;4.53;4.27;;;4.70;99.90;;;;;;5045403;28;20199;-63
2022/01/17 09:33:58;;;;;;;3.87;3.67;;;4.70;99.90;;;;;;5038382;28;20201;-63
2022/01/17 09:36:28;;;;;;;4.43;4.20;;;4.70;99.90;;;;;;5033524;28;20650;-62
2022/01/17 09:38:55;;;;;;;4.33;4.10;;;4.80;99.90;;;;;;5038507;28;20729;-63
2022/01/17 09:41:22;;;;;;;4.33;4.07;;;4.80;99.90;;;;;;5041349;28;20813;-62
2022/01/17 09:43:49;;;;;;;3.67;3.47;;;4.80;99.90;;;;;;5038622;28;20204;-62
2022/01/17 09:46:20;;;;;;;4.13;3.93;;;4.80;99.90;;;;;;5039753;28;20211;-62
2022/01/17 09:48:49;;;;;;;3.67;3.47;;;4.80;99.90;;;;;;5044517;28;20201;-62
2022/01/17 09:51:20;;;;;;;3.60;3.40;;;4.70;99.90;;;;;;5041566;28;20204;-64
2022/01/17 09:53:51;;;;;;;4.00;3.80;;;4.70;99.90;;;;;;5041360;28;20196;-63
2022/01/17 09:56:21;;;;;;;3.90;3.70;;;4.70;99.90;;;;;;5033804;28;20788;-62
2022/01/17 09:58:48;;;;;;;3.50;3.30;;;4.80;99.90;;;;;;5032159;28;20236;-62
2022/01/17 10:01:15;;;;;;;3.70;3.50;;;4.70;99.90;;;;;;5033576;28;20300;-63
2022/01/17 10:03:43;;;;;;;3.77;3.57;;;4.70;99.90;;;;;;5032576;28;20232;-62
2022/01/17 10:06:10;;;;;;;3.93;3.73;;;4.60;99.90;;;;;;5034409;28;20239;-61
2022/01/17 10:08:37;;;;;;;4.00;3.80;;;4.60;99.90;;;;;;5032809;28;20643;-63
2022/01/17 10:11:13;;;;;;;4.40;4.20;;;4.60;99.90;;;;;;5035923;28;20671;-62
2022/01/17 10:13:44;;;;;;;4.70;4.40;;;4.60;99.90;;;;;;5032799;28;20211;-62
2022/01/17 10:16:14;;;;;;;4.30;4.10;;;4.70;99.90;;;;;;5038922;28;20196;-62
2022/01/17 10:18:45;;;;;;;4.57;4.27;;;4.60;99.90;;;;;;5040029;28;20258;-62
2022/01/17 10:21:27;;;;;;;4.00;3.80;;;4.70;99.90;;;;;;5053510;28;20211;-63
2022/01/17 10:24:14;;;;;;;4.80;4.50;;;4.70;99.90;;;;;;5050468;28;20631;-62
2022/01/17 10:29:54;;;;;;;3.80;3.60;;;4.80;99.90;;;;;;5049131;28;20187;-61
2022/01/17 10:35:16;;;;;;;4.10;3.90;;;4.80;99.90;;;;;;5054367;28;20230;-61
2022/01/17 10:37:58;;;;;;;3.87;3.67;;;4.90;99.90;;;;;;5051970;28;20374;-62
2022/01/17 10:40:26;;;;;;;3.97;3.77;;;4.90;99.90;;;;;;5052931;28;20289;-62
2022/01/17 10:42:55;;;;;;;3.80;3.60;;;5.00;99.90;;;;;;5052295;28;20200;-63
2022/01/17 10:45:24;;;;;;;3.80;3.50;;;5.10;99.90;;;;;;5054348;28;20230;-62
2022/01/17 10:47:54;;;;;;;3.60;3.40;;;5.20;99.90;;;;;;5050516;28;20203;-62
2022/01/17 10:50:25;;;;;;;3.80;3.60;;;5.20;99.90;;;;;;5054700;28;20685;-62
2022/01/17 10:52:54;;;;;;;3.33;3.13;;;5.30;99.90;;;;;;5052278;28;20282;-62
2022/01/17 10:55:24;;;;;;;3.03;2.83;;;5.40;99.90;;;;;;5053172;28;20227;-63
2022/01/17 10:57:53;;;;;;;3.40;3.20;;;5.40;99.90;;;;;;5052569;28;20211;-62
2022/01/17 11:00:23;;;;;;;3.20;3.00;;;5.50;99.90;;;;;;5052095;28;20211;-62
2022/01/17 11:02:52;;;;;;;3.10;2.90;;;5.50;99.90;;;;;;5048760;28;20263;-63
2022/01/17 11:05:22;;;;;;;3.03;2.93;;;5.50;99.90;;;;;;5053903;28;20299;-62
2022/01/17 11:07:51;;;;;;;3.30;3.10;;;5.60;99.90;;;;;;5052801;28;20207;-62
2022/01/17 11:10:21;;;;;;;3.33;3.13;;;5.60;99.90;;;;;;5053763;28;20216;-61
2022/01/17 11:12:49;;;;;;;3.37;3.17;;;5.70;99.90;;;;;;5051008;28;20920;-62
2022/01/17 11:15:17;;;;;;;3.07;2.87;;;5.70;99.90;;;;;;5055192;28;20828;-63
2022/01/17 11:17:51;;;;;;;2.73;2.63;;;5.80;99.90;;;;;;5054986;28;20243;-62
2022/01/17 11:20:19;;;;;;;2.80;2.70;;;5.80;99.90;;;;;;5052139;28;20227;-62
2022/01/17 11:22:50;;;;;;;2.97;2.77;;;5.80;99.90;;;;;;5053206;28;20214;-62
2022/01/17 11:25:19;;;;;;;2.30;2.20;;;5.90;99.90;;;;;;5049760;28;20306;-62
2022/01/17 11:27:46;;;;;;;2.50;2.40;;;5.90;99.90;;;;;;5055889;28;20279;-61
2022/01/17 11:30:16;;;;;;;2.87;2.70;;;6.00;99.90;;;;;;5057527;28;20687;-62
2022/01/17 11:32:43;;;;;;;2.80;2.60;;;6.10;99.90;;;;;;5056167;28;20287;-61
2022/01/17 11:35:11;;;;;;;2.50;2.40;;;6.10;99.90;;;;;;5056799;28;20315;-62
2022/01/17 11:37:41;;;;;;;2.90;2.80;;;6.10;99.90;;;;;;5052282;28;20651;-63
2022/01/17 11:40:12;;;;;;;2.60;2.50;;;6.10;99.90;;;;;;5054594;28;20208;-63
2022/01/17 11:42:41;;;;;;;2.33;2.23;;;6.20;99.90;;;;;;5053061;28;20200;-62
2022/01/17 11:45:34;;;;;;;2.10;2.00;;;6.20;99.90;;;;;;5054260;28;20224;-62
2022/01/17 11:48:03;;;;;;;2.30;2.20;;;6.20;99.90;;;;;;5051706;28;20605;-62
2022/01/17 11:50:47;;;;;;;2.50;2.30;;;6.30;99.90;;;;;;5055908;28;20358;-61
2022/01/17 11:53:41;;;;;;;2.60;2.50;;;6.20;99.90;;;;;;5056536;28;20206;-63
2022/01/17 11:56:10;;;;;;;2.70;2.60;;;6.20;99.90;;;;;;5054383;28;20224;-61
2022/01/17 11:58:42;;;;;;;3.10;2.90;;;6.10;99.90;;;;;;5051491;28;20402;-64
2022/01/17 12:01:18;;;;;;;3.20;3.00;;;6.00;99.90;;;;;;5054170;28;20210;-62
2022/01/17 12:03:48;;;;;;;3.00;2.90;;;5.80;99.90;;;;;;5053635;28;20210;-62
2022/01/17 12:06:21;;;;;;;2.87;2.77;;;5.80;99.90;;;;;;5058100;28;20310;-62
2022/01/17 12:08:49;;;;;;;3.80;3.60;;;5.80;99.90;;;;;;5054869;28;20923;-62
2022/01/17 12:11:31;;;;;;;3.57;3.37;;;5.80;99.90;;;;;;5055738;28;20954;-61
2022/01/17 12:14:22;;;;;;;3.60;3.40;;;5.90;99.90;;;;;;5053827;28;20291;-63
2022/01/17 12:16:50;;;;;;;3.60;3.40;;;5.80;99.90;;;;;;5051321;28;20204;-62
2022/01/17 12:19:16;;;;;;;3.17;3.00;;;5.90;99.90;;;;;;5053231;28;20294;-62
2022/01/17 12:21:53;;;;;;;3.57;3.37;;;6.10;99.90;;;;;;5052103;28;20295;-63
2022/01/17 12:24:47;;;;;;;3.30;3.10;;;6.10;99.90;;;;;;5052207;28;20273;-64
2022/01/17 12:27:18;;;;;;;3.30;3.10;;;6.20;99.90;;;;;;5055009;28;20384;-63
2022/01/17 12:29:52;;;;;;;3.60;3.40;;;6.20;99.90;;;;;;5054803;28;20224;-62
2022/01/17 12:32:47;;;;;;;3.90;3.70;;;6.10;99.90;;;;;;5055793;28;20204;-62
2022/01/17 12:35:30;;;;;;;3.47;3.27;;;6.10;99.90;;;;;;5048509;28;20232;-64
2022/01/17 12:38:06;;;;;;;3.40;3.20;;;6.20;99.90;;;;;;5055513;28;20196;-64
2022/01/17 12:40:36;;;;;;;4.00;3.80;;;6.20;99.90;;;;;;5054193;28;20763;-62
2022/01/17 12:43:07;;;;;;;3.33;3.13;;;6.30;99.90;;;;;;5054356;28;20287;-62
2022/01/17 12:45:36;;;;;;;3.23;3.03;;;6.30;99.90;;;;;;5054408;28;20224;-62
2022/01/17 12:48:06;;;;;;;3.07;2.97;;;6.40;99.90;;;;;;5054780;28;20206;-62
2022/01/17 12:50:36;;;;;;;3.00;2.90;;;6.50;99.90;;;;;;5062807;28;20286;-63
2022/01/17 12:53:05;;;;;;;2.97;2.87;;;6.70;99.90;;;;;;5049786;28;20201;-61
2022/01/17 12:55:38;;;;;;;3.00;2.90;;;6.60;99.90;;;;;;5055135;28;20321;-63
2022/01/17 12:58:16;;;;;;;2.63;2.53;;;6.60;99.90;;;;;;5051059;28;20204;-63
2022/01/17 13:00:45;;;;;;;3.17;3.00;;;6.70;99.90;;;;;;5052252;28;20741;-63
2022/01/17 13:03:15;;;;;;;2.87;2.77;;;6.80;99.90;;;;;;5053190;28;20305;-63
2022/01/17 13:05:43;;;;;;;2.77;2.67;;;6.80;99.90;;;;;;5053870;28;20227;-62
2022/01/17 13:08:10;;;;;;;2.40;2.30;;;7.00;99.90;;;;;;5056210;28;20697;-62
2022/01/17 13:10:37;;;;;;;3.00;2.90;;;7.00;99.90;;;;;;5051829;28;20210;-62
2022/01/17 13:13:05;;;;;;;2.80;2.70;;;7.00;99.90;;;;;;5049343;28;20220;-63
2022/01/17 13:15:36;;;;;;;2.47;2.37;;;6.90;99.90;;;;;;5054378;28;20302;-61
2022/01/17 13:18:03;;;;;;;2.80;2.70;;;6.90;99.90;;;;;;5048464;28;20200;-62
2022/01/17 13:20:30;;;;;;;2.50;2.40;;;6.90;99.90;;;;;;5049647;28;20203;-64
2022/01/17 13:23:02;;;;;;;2.73;2.63;;;6.90;99.90;;;;;;5046701;28;20211;-62